Time;durP1;ratioP1;P1;durP2;ratioP2;P2;SDS_P1;SDS_P2;PMS_P1;PMS_P2;Temp;Humidity;BMP_temperature;BMP_pressure;BME280_temperature;BME280_humidity;BME280_pressure;Samples;Min_cycle;Max_cycle;Signal;HPM_P1;HPM_P2
2023/12/14 00:01:20;;;;;;;20.85;17.08;;;;;;;5.78;82.34;97705.72;4494178;31;33610;-88
2023/12/14 00:03:48;;;;;;;22.45;17.77;;;;;;;6.02;81.91;97699.06;4474825;31;32486;-88
2023/12/14 00:06:16;;;;;;;24.77;19.30;;;;;;;6.03;80.80;97706.81;4492944;31;33611;-88
2023/12/14 00:08:43;;;;;;;26.10;20.17;;;;;;;5.68;82.24;97710.78;4489507;31;34225;-88
2023/12/14 00:11:11;;;;;;;25.48;20.33;;;;;;;5.81;81.37;97702.34;4489937;31;33330;-89
2023/12/14 00:13:39;;;;;;;27.40;20.92;;;;;;;5.61;81.96;97700.47;4496365;31;34136;-88
2023/12/14 00:16:07;;;;;;;30.25;22.90;;;;;;;5.40;82.97;97696.81;4489540;31;33497;-87
2023/12/14 00:18:36;;;;;;;31.33;22.73;;;;;;;5.52;82.71;97704.63;4473662;31;35312;-88
2023/12/14 00:21:04;;;;;;;35.28;24.75;;;;;;;5.21;83.57;97717.19;4479980;31;33614;-88
2023/12/14 00:23:31;;;;;;;38.85;26.92;;;;;;;5.18;84.33;97724.84;4490561;31;34463;-87
2023/12/14 00:25:59;;;;;;;35.50;24.45;;;;;;;5.12;84.81;97733.38;4482786;31;34818;-87
2023/12/14 00:28:26;;;;;;;40.65;25.83;;;;;;;5.41;83.76;97732.81;4514352;31;33612;-88
2023/12/14 00:30:58;;;;;;;46.88;28.25;;;;;;;5.47;83.39;97739.72;4501543;31;33820;-86
2023/12/14 00:33:26;;;;;;;37.10;24.25;;;;;;;5.12;84.59;97751.34;4489322;31;34147;-86
2023/12/14 00:35:53;;;;;;;32.53;22.65;;;;;;;5.49;83.42;97754.34;4494939;31;33743;-87
2023/12/14 00:38:21;;;;;;;32.05;21.92;;;;;;;5.46;83.37;97761.16;4488975;31;32079;-85
2023/12/14 00:40:48;;;;;;;36.38;23.67;;;;;;;5.45;83.95;97772.25;4489489;31;33460;-87
2023/12/14 00:43:16;;;;;;;40.10;24.45;;;;;;;5.91;81.83;97775.28;4492676;31;34040;-86
2023/12/14 00:45:43;;;;;;;31.73;22.65;;;;;;;5.78;81.98;97782.87;4497305;31;34492;-88
2023/12/14 00:48:11;;;;;;;37.15;24.42;;;;;;;5.85;80.75;97802.66;4494545;31;33428;-89
2023/12/14 00:50:38;;;;;;;35.40;24.05;;;;;;;5.39;83.86;97814.19;4495695;31;33972;-87
2023/12/14 00:53:06;;;;;;;39.45;24.95;;;;;;;5.26;83.72;97814.88;4499330;31;33763;-88
2023/12/14 00:55:34;;;;;;;38.78;25.80;;;;;;;5.54;83.39;97834.06;4485917;31;34195;-88
2023/12/14 00:58:01;;;;;;;35.15;23.55;;;;;;;5.90;81.82;97843.00;4510182;31;33339;-88
2023/12/14 01:00:29;;;;;;;34.58;24.23;;;;;;;5.52;83.75;97846.03;4513974;31;33511;-87
2023/12/14 01:02:56;;;;;;;43.30;25.75;;;;;;;5.93;81.21;97843.06;4502917;31;33937;-89
2023/12/14 01:05:24;;;;;;;34.15;24.55;;;;;;;5.78;81.79;97841.16;4499386;31;33721;-88
2023/12/14 01:07:51;;;;;;;33.10;22.92;;;;;;;5.65;82.65;97834.19;4505977;31;33404;-88
2023/12/14 01:10:19;;;;;;;37.13;25.10;;;;;;;5.67;82.69;97830.75;4510552;31;33932;-88
2023/12/14 01:12:47;;;;;;;47.40;28.25;;;;;;;5.50;83.48;97833.16;4514899;31;34826;-88
2023/12/14 01:15:14;;;;;;;40.88;27.62;;;;;;;5.36;84.07;97821.84;4503216;31;34472;-89
2023/12/14 01:17:42;;;;;;;37.78;27.15;;;;;;;5.17;85.01;97807.94;4503949;31;33736;-85
2023/12/14 01:20:10;;;;;;;38.63;26.85;;;;;;;5.45;83.87;97795.38;4501927;31;34340;-89
2023/12/14 01:22:37;;;;;;;58.03;31.52;;;;;;;5.33;84.25;97791.84;4512549;31;34161;-89
2023/12/14 01:25:06;;;;;;;38.67;26.95;;;;;;;5.19;84.96;97795.09;4499690;31;33780;-87
2023/12/14 01:27:33;;;;;;;36.15;25.50;;;;;;;5.62;82.43;97788.72;4507067;31;33004;-87
2023/12/14 01:30:01;;;;;;;39.63;27.10;;;;;;;5.92;80.70;97788.19;4498664;31;33754;-86
2023/12/14 01:32:29;;;;;;;51.42;28.52;;;;;;;5.78;81.33;97787.16;4503550;31;34031;-86
2023/12/14 01:34:56;;;;;;;62.47;31.95;;;;;;;5.95;80.15;97785.66;4507381;31;33979;-87
2023/12/14 01:37:23;;;;;;;56.47;29.23;;;;;;;5.58;81.89;97795.53;4512985;31;33543;-87
2023/12/14 01:39:51;;;;;;;57.25;30.23;;;;;;;5.81;81.02;97792.34;4514950;31;33516;-87
2023/12/14 01:42:19;;;;;;;41.58;27.45;;;;;;;6.06;79.89;97783.16;4506733;31;33738;-86
2023/12/14 01:44:46;;;;;;;49.40;29.65;;;;;;;5.78;80.64;97777.72;4515046;31;34509;-87
2023/12/14 01:47:14;;;;;;;42.22;27.48;;;;;;;5.53;82.60;97768.06;4514624;31;33410;-85
2023/12/14 01:49:41;;;;;;;43.25;27.25;;;;;;;5.46;82.53;97774.84;4513754;31;33891;-88
2023/12/14 01:52:09;;;;;;;43.08;27.42;;;;;;;5.71;82.20;97777.66;4510297;31;33536;-87
2023/12/14 01:54:36;;;;;;;47.20;28.20;;;;;;;5.83;81.02;97773.53;4485179;31;35019;-88
2023/12/14 01:57:04;;;;;;;37.78;24.90;;;;;;;5.70;81.76;97781.94;4503745;31;33594;-89
2023/12/14 01:59:32;;;;;;;39.55;24.45;;;;;;;5.98;80.40;97789.94;4501051;31;34364;-89
2023/12/14 02:02:01;;;;;;;37.15;24.40;;;;;;;5.98;80.55;97795.94;4507963;31;33952;-88
2023/12/14 02:04:29;;;;;;;38.40;24.25;;;;;;;6.10;80.04;97808.09;4514552;31;34602;-88
2023/12/14 02:06:56;;;;;;;42.62;25.37;;;;;;;6.30;78.90;97814.25;4514539;31;33454;-89
2023/12/14 02:09:24;;;;;;;41.42;25.25;;;;;;;6.21;79.65;97809.03;4510170;31;33886;-88
2023/12/14 02:11:52;;;;;;;42.47;25.20;;;;;;;5.99;81.38;97812.28;4503645;31;33755;-89
2023/12/14 02:14:21;;;;;;;45.45;26.17;;;;;;;6.05;80.96;97812.31;4512805;31;33880;-88
2023/12/14 02:16:49;;;;;;;41.10;24.98;;;;;;;6.07;80.60;97795.19;4500123;31;33551;-89
2023/12/14 02:19:16;;;;;;;40.67;25.33;;;;;;;6.34;80.16;97797.97;4510632;31;33872;-87
2023/12/14 02:21:44;;;;;;;43.08;26.60;;;;;;;5.91;81.93;97801.00;4507966;31;34910;-88
2023/12/14 02:24:11;;;;;;;50.50;28.83;;;;;;;5.78;82.96;97793.16;4501141;31;33732;-86
2023/12/14 02:26:39;;;;;;;40.97;26.23;;;;;;;5.81;83.11;97800.91;4510748;31;33676;-89
2023/12/14 02:29:06;;;;;;;49.22;26.95;;;;;;;6.04;82.05;97790.00;4511071;31;33772;-87
2023/12/14 02:31:34;;;;;;;42.10;25.98;;;;;;;6.20;81.07;97798.72;4514179;31;34067;-88
2023/12/14 02:34:01;;;;;;;45.00;27.30;;;;;;;5.72;82.83;97798.28;4486881;31;34098;-86
2023/12/14 02:36:29;;;;;;;47.80;28.35;;;;;;;5.89;82.03;97810.41;4503292;31;33646;-88
2023/12/14 02:38:56;;;;;;;45.28;28.15;;;;;;;5.87;82.88;97818.09;4504084;31;34306;-87
2023/12/14 02:41:24;;;;;;;43.78;26.58;;;;;;;6.05;81.23;97822.59;4513345;31;34871;-87
2023/12/14 02:43:51;;;;;;;41.42;26.73;;;;;;;5.94;81.43;97813.91;4512602;31;33983;-87
2023/12/14 02:46:19;;;;;;;49.05;28.95;;;;;;;5.61;83.61;97820.44;4512590;31;32934;-87
2023/12/14 02:48:47;;;;;;;45.63;29.20;;;;;;;5.50;84.63;97822.03;4502253;31;33321;-86
2023/12/14 02:51:14;;;;;;;46.92;30.60;;;;;;;5.57;84.02;97814.41;4483495;31;33760;-86
2023/12/14 02:53:42;;;;;;;40.40;26.95;;;;;;;5.89;82.93;97810.41;4506815;31;33658;-88
2023/12/14 02:56:11;;;;;;;49.90;30.37;;;;;;;5.75;82.85;97795.69;4505646;31;33301;-86
2023/12/14 02:58:38;;;;;;;53.83;31.02;;;;;;;5.58;83.40;97802.41;4496886;31;34032;-87
2023/12/14 03:01:06;;;;;;;49.85;29.58;;;;;;;5.76;83.49;97805.16;4507086;31;34845;-86
2023/12/14 03:03:34;;;;;;;43.97;27.80;;;;;;;5.71;83.32;97800.81;4495237;31;34163;-87
2023/12/14 03:06:02;;;;;;;39.80;27.17;;;;;;;5.66;82.94;97802.47;4490933;31;33740;-88
2023/12/14 03:08:29;;;;;;;43.35;28.12;;;;;;;5.96;81.06;97809.66;4512413;31;34641;-88
2023/12/14 03:10:57;;;;;;;46.08;28.55;;;;;;;5.98;80.87;97806.22;4508649;31;33800;-88
2023/12/14 03:13:24;;;;;;;43.33;27.20;;;;;;;6.11;80.28;97806.37;4512154;31;34184;-87
2023/12/14 03:15:52;;;;;;;45.88;27.33;;;;;;;6.19;79.72;97805.56;4487675;31;33241;-87
2023/12/14 03:18:19;;;;;;;44.20;28.30;;;;;;;6.35;79.60;97816.84;4498709;31;34259;-87
2023/12/14 03:20:47;;;;;;;41.75;28.20;;;;;;;6.00;80.56;97829.41;4497355;31;34138;-87
2023/12/14 03:23:14;;;;;;;42.60;27.55;;;;;;;5.56;83.22;97842.63;4507470;31;34185;-87
2023/12/14 03:25:42;;;;;;;46.75;27.87;;;;;;;6.13;80.59;97851.81;4512992;31;33876;-87
2023/12/14 03:28:10;;;;;;;41.97;26.70;;;;;;;6.03;79.96;97850.03;4510422;31;33660;-85
2023/12/14 03:30:37;;;;;;;37.38;26.10;;;;;;;6.04;80.25;97868.03;4512334;31;34019;-88
2023/12/14 03:33:07;;;;;;;44.88;28.05;;;;;;;6.28;80.69;97882.84;4503032;31;34102;-87
2023/12/14 03:35:35;;;;;;;42.10;26.65;;;;;;;6.14;80.89;97887.03;4496165;31;33631;-86
2023/12/14 03:38:03;;;;;;;38.33;26.35;;;;;;;5.89;81.77;97890.16;4499655;31;33624;-86
2023/12/14 03:40:31;;;;;;;39.50;26.95;;;;;;;6.21;80.54;97901.69;4511997;31;34276;-89
2023/12/14 03:42:58;;;;;;;43.95;28.75;;;;;;;6.25;80.42;97897.41;4511619;31;34860;-87
2023/12/14 03:45:26;;;;;;;43.60;27.60;;;;;;;5.83;82.96;97898.66;4512395;31;33746;-88
2023/12/14 03:47:53;;;;;;;40.83;27.73;;;;;;;6.04;80.98;97908.34;4507407;31;33614;-87
2023/12/14 03:50:21;;;;;;;41.50;27.50;;;;;;;5.93;81.62;97899.66;4500638;31;33892;-85
2023/12/14 03:52:48;;;;;;;38.88;27.33;;;;;;;6.10;81.27;97905.84;4508381;31;35377;-87
2023/12/14 03:55:16;;;;;;;43.83;28.02;;;;;;;5.99;81.03;97902.31;4497440;31;33471;-86
2023/12/14 03:57:44;;;;;;;42.50;28.27;;;;;;;6.04;81.03;97895.50;4505875;31;34020;-87
2023/12/14 04:00:12;;;;;;;43.05;27.83;;;;;;;5.92;81.06;97901.38;4511160;31;34127;-86
2023/12/14 04:02:40;;;;;;;42.88;27.65;;;;;;;6.12;81.04;97901.56;4486331;31;33745;-87
2023/12/14 04:05:08;;;;;;;43.63;28.35;;;;;;;6.15;80.68;97901.59;4502948;31;33758;-88
2023/12/14 04:07:40;;;;;;;41.75;29.63;;;;;;;5.84;81.79;97906.41;4498622;31;34497;-87
2023/12/14 04:10:11;;;;;;;55.72;37.78;;;;;;;5.94;81.33;97901.38;4510745;31;35095;-85
2023/12/14 04:12:39;;;;;;;45.80;32.92;;;;;;;5.58;83.66;97913.81;4511166;31;33528;-87
2023/12/14 04:15:08;;;;;;;54.03;35.05;;;;;;;5.81;82.32;97918.34;4483978;31;34354;-88
2023/12/14 04:17:36;;;;;;;48.95;30.35;;;;;;;5.56;83.28;97919.75;4498311;31;34593;-87
2023/12/14 04:20:05;;;;;;;51.85;34.00;;;;;;;5.96;81.91;97922.84;4506073;31;33930;-85
2023/12/14 04:22:33;;;;;;;58.47;43.97;;;;;;;5.77;83.02;97934.59;4514142;31;34291;-88
2023/12/14 04:25:02;;;;;;;49.40;31.98;;;;;;;5.68;83.08;97929.31;4505582;31;33608;-88
2023/12/14 04:27:29;;;;;;;54.65;34.40;;;;;;;5.66;82.68;97931.91;4500736;31;33770;-85
2023/12/14 04:29:57;;;;;;;55.08;33.13;;;;;;;5.93;82.03;97931.38;4500314;31;33786;-88
2023/12/14 04:32:25;;;;;;;56.42;35.15;;;;;;;6.01;81.33;97928.91;4507595;31;35165;-86
2023/12/14 04:34:52;;;;;;;63.75;34.45;;;;;;;5.87;81.85;97920.97;4487750;31;33374;-88
2023/12/14 04:37:20;;;;;;;63.53;38.08;;;;;;;5.66;82.66;97924.19;4503372;31;33785;-87
2023/12/14 04:39:48;;;;;;;54.38;33.42;;;;;;;6.08;80.58;97928.13;4513109;31;33973;-87
2023/12/14 04:42:15;;;;;;;56.25;33.88;;;;;;;6.08;80.38;97928.13;4513859;31;34672;-87
2023/12/14 04:44:42;;;;;;;69.28;35.83;;;;;;;6.10;80.29;97929.00;4513885;31;34724;-88
2023/12/14 04:47:10;;;;;;;66.25;36.10;;;;;;;5.92;80.79;97936.50;4504354;31;33104;-87
2023/12/14 04:49:38;;;;;;;64.82;36.60;;;;;;;6.24;80.47;97932.56;4501441;31;34937;-87
2023/12/14 04:52:05;;;;;;;57.80;35.38;;;;;;;5.67;83.52;97943.91;4512187;31;33887;-88
2023/12/14 04:54:35;;;;;;;61.92;36.45;;;;;;;5.98;82.17;97946.88;4497660;31;34048;-88
2023/12/14 04:57:03;;;;;;;75.68;38.47;;;;;;;6.06;80.97;97953.84;4513441;31;33884;-88
2023/12/14 04:59:30;;;;;;;67.87;37.35;;;;;;;6.14;80.82;97956.50;4514797;31;34975;-87
2023/12/14 05:01:58;;;;;;;63.75;37.17;;;;;;;5.83;82.64;97961.25;4497620;31;33876;-87
2023/12/14 05:04:25;;;;;;;68.05;38.42;;;;;;;5.85;82.64;97964.69;4497618;31;33575;-86
2023/12/14 05:06:54;;;;;;;68.12;37.30;;;;;;;5.79;82.47;97966.31;4484154;31;34186;-87
2023/12/14 05:09:21;;;;;;;70.78;39.55;;;;;;;6.02;82.00;97969.22;4484349;31;33978;-86
2023/12/14 05:11:49;;;;;;;75.90;40.12;;;;;;;6.23;80.64;97966.87;4510911;31;32961;-87
2023/12/14 05:14:16;;;;;;;58.80;34.53;;;;;;;6.12;80.72;97960.75;4506205;31;34482;-88
2023/12/14 05:17:02;;;;;;;76.82;37.83;;;;;;;6.32;80.05;97961.81;4505250;31;34297;-88
2023/12/14 05:19:38;;;;;;;65.85;39.20;;;;;;;5.81;82.03;97962.09;4500276;31;34178;-87
2023/12/14 05:22:06;;;;;;;62.83;37.20;;;;;;;6.09;81.14;97964.16;4499663;31;33826;-87
2023/12/14 05:24:35;;;;;;;68.65;38.45;;;;;;;6.26;80.44;97969.50;4506015;31;33749;-88
2023/12/14 05:27:03;;;;;;;62.70;37.70;;;;;;;6.14;81.03;97976.19;4505322;31;34605;-85
2023/12/14 05:29:33;;;;;;;69.25;39.97;;;;;;;6.09;81.56;97983.88;4507409;31;34512;-84
2023/12/14 05:32:00;;;;;;;64.10;36.90;;;;;;;6.24;80.30;97983.19;4504298;31;33942;-87
2023/12/14 05:34:28;;;;;;;54.75;34.10;;;;;;;6.23;80.98;97992.62;4486455;31;32569;-87
2023/12/14 05:36:55;;;;;;;57.83;37.20;;;;;;;6.08;80.94;98000.16;4501402;31;34706;-87
2023/12/14 05:39:23;;;;;;;70.37;38.75;;;;;;;5.91;81.84;97999.03;4508494;31;33640;-88
2023/12/14 05:41:50;;;;;;;61.58;37.05;;;;;;;6.13;80.76;98006.22;4503462;31;33741;-87
2023/12/14 05:44:18;;;;;;;65.90;38.78;;;;;;;6.38;79.82;98006.50;4508321;31;33624;-87
2023/12/14 05:46:45;;;;;;;78.32;41.50;;;;;;;6.62;79.11;98017.03;4508125;31;33575;-87
2023/12/14 05:49:13;;;;;;;60.60;36.50;;;;;;;6.19;79.92;98014.00;4508465;31;34022;-86
2023/12/14 05:51:41;;;;;;;65.43;37.97;;;;;;;6.16;81.04;98016.53;4486582;31;34794;-87
2023/12/14 05:54:08;;;;;;;64.00;38.30;;;;;;;6.02;80.95;98007.78;4495411;31;33256;-87
2023/12/14 05:56:36;;;;;;;70.85;37.78;;;;;;;6.14;80.51;98023.41;4499465;31;34667;-86
2023/12/14 05:59:07;;;;;;;60.12;37.45;;;;;;;6.32;79.62;98018.44;4499268;31;33224;-86
2023/12/14 06:01:34;;;;;;;61.37;37.67;;;;;;;6.22;80.33;98019.22;4502710;31;34110;-86
2023/12/14 06:04:02;;;;;;;63.85;37.67;;;;;;;5.94;81.48;98020.56;4505657;31;33619;-86
2023/12/14 06:06:30;;;;;;;61.47;36.83;;;;;;;6.49;79.49;98026.37;4506211;31;33491;-86
2023/12/14 06:08:57;;;;;;;65.65;37.85;;;;;;;6.13;80.62;98031.09;4502944;31;34009;-88
2023/12/14 06:11:25;;;;;;;56.45;35.72;;;;;;;5.89;82.13;98031.62;4496958;31;33606;-86
2023/12/14 06:13:53;;;;;;;64.22;38.25;;;;;;;5.93;81.11;98034.28;4505387;31;33337;-86
2023/12/14 06:16:20;;;;;;;75.95;40.75;;;;;;;5.78;82.73;98037.47;4503528;31;33449;-88
2023/12/14 06:18:48;;;;;;;67.25;41.08;;;;;;;5.91;81.21;98037.63;4506401;31;34597;-88
2023/12/14 06:21:15;;;;;;;67.15;40.92;;;;;;;6.07;80.94;98044.75;4513574;31;33829;-87
2023/12/14 06:23:43;;;;;;;64.00;39.05;;;;;;;6.02;81.07;98038.66;4511251;31;34707;-87
2023/12/14 06:26:10;;;;;;;63.60;38.95;;;;;;;6.33;79.71;98038.22;4500526;31;33655;-86
2023/12/14 06:28:38;;;;;;;62.47;39.30;;;;;;;6.16;80.88;98044.84;4503535;31;34059;-86
2023/12/14 06:31:07;;;;;;;60.28;38.05;;;;;;;5.75;82.61;98052.84;4509654;31;34904;-85
2023/12/14 06:33:35;;;;;;;60.88;36.97;;;;;;;5.88;82.12;98053.06;4500530;31;33156;-85
2023/12/14 06:36:04;;;;;;;58.03;37.83;;;;;;;6.09;81.12;98061.91;4502698;31;34624;-88
2023/12/14 06:38:32;;;;;;;59.38;38.70;;;;;;;6.16;80.76;98050.00;4492628;31;34221;-87
2023/12/14 06:41:01;;;;;;;61.60;39.63;;;;;;;6.14;80.53;98059.44;4512229;31;33849;-88
2023/12/14 06:43:29;;;;;;;64.28;39.55;;;;;;;6.20;80.45;98069.78;4488502;31;33249;-90
2023/12/14 06:45:56;;;;;;;66.32;41.42;;;;;;;6.04;81.78;98083.31;4507536;31;33877;-88
2023/12/14 06:48:24;;;;;;;64.03;40.42;;;;;;;5.49;84.48;98080.78;4512282;31;34036;-85
2023/12/14 06:50:54;;;;;;;65.97;41.60;;;;;;;6.16;81.62;98083.47;4484498;31;33354;-89
2023/12/14 06:53:22;;;;;;;59.58;39.13;;;;;;;6.50;79.34;98083.88;4493165;31;33556;-87
2023/12/14 06:55:50;;;;;;;57.58;39.80;;;;;;;5.81;81.83;98091.53;4484731;31;33885;-88
2023/12/14 06:58:17;;;;;;;69.37;43.45;;;;;;;5.83;82.99;98088.97;4484886;31;33882;-87
2023/12/14 07:00:45;;;;;;;59.95;39.60;;;;;;;5.78;83.21;98099.19;4470930;31;34109;-88
2023/12/14 07:03:13;;;;;;;58.33;39.78;;;;;;;5.99;82.23;98100.41;4504779;31;33455;-87
2023/12/14 07:05:42;;;;;;;57.55;40.50;;;;;;;5.84;82.65;98103.59;4507223;31;34774;-86
2023/12/14 07:08:10;;;;;;;59.22;40.78;;;;;;;6.07;81.82;98103.94;4499108;31;34615;-87
2023/12/14 07:10:37;;;;;;;64.82;41.08;;;;;;;5.80;83.45;98115.53;4499433;31;34209;-87
2023/12/14 07:13:05;;;;;;;58.10;39.38;;;;;;;5.73;83.33;98118.84;4490509;31;33976;-87
2023/12/14 07:15:32;;;;;;;55.03;39.58;;;;;;;6.28;80.84;98119.63;4510827;31;33494;-88
2023/12/14 07:18:00;;;;;;;55.30;38.72;;;;;;;6.58;79.14;98128.59;4512113;31;34058;-87
2023/12/14 07:20:28;;;;;;;57.17;39.22;;;;;;;6.69;78.71;98131.28;4512496;31;34042;-87
2023/12/14 07:22:55;;;;;;;55.78;38.80;;;;;;;5.84;82.96;98137.88;4498075;31;34366;-87
2023/12/14 07:25:23;;;;;;;55.50;37.58;;;;;;;6.37;80.43;98142.09;4511608;31;33278;-86
2023/12/14 07:27:50;;;;;;;57.62;39.13;;;;;;;6.47;79.82;98146.47;4507026;31;33262;-88
2023/12/14 07:30:18;;;;;;;54.65;37.25;;;;;;;6.49;80.07;98136.22;4498305;31;34028;-88
2023/12/14 07:32:46;;;;;;;54.58;36.40;;;;;;;6.33;80.23;98150.63;4498296;31;34170;-86
2023/12/14 07:35:13;;;;;;;56.88;38.30;;;;;;;6.55;79.50;98152.62;4502580;31;33325;-88
2023/12/14 07:37:41;;;;;;;54.30;37.33;;;;;;;6.76;78.81;98148.56;4510817;31;34879;-87
2023/12/14 07:40:09;;;;;;;52.97;35.40;;;;;;;6.47;79.90;98155.91;4506691;31;34182;-87
2023/12/14 07:42:36;;;;;;;52.40;36.42;;;;;;;6.67;79.10;98161.34;4483623;31;33800;-87
2023/12/14 07:45:05;;;;;;;50.97;34.67;;;;;;;6.66;79.24;98165.59;4505988;31;33423;-88
2023/12/14 07:47:32;;;;;;;56.88;36.78;;;;;;;6.81;78.62;98170.06;4508889;31;34958;-87
2023/12/14 07:50:00;;;;;;;54.92;36.38;;;;;;;6.51;80.18;98168.84;4500350;31;34713;-88
2023/12/14 07:52:27;;;;;;;56.90;37.00;;;;;;;6.61;79.88;98174.13;4503712;31;33755;-86
2023/12/14 07:54:55;;;;;;;52.53;36.17;;;;;;;6.69;79.13;98165.63;4504106;31;33797;-88
2023/12/14 07:57:23;;;;;;;54.33;36.42;;;;;;;6.50;80.02;98163.69;4505696;31;34124;-88
2023/12/14 07:59:51;;;;;;;50.92;36.40;;;;;;;6.56;79.62;98171.50;4515425;31;34200;-88
2023/12/14 08:02:18;;;;;;;56.50;36.78;;;;;;;6.72;79.05;98167.41;4513154;31;34103;-88
2023/12/14 08:04:46;;;;;;;49.40;34.80;;;;;;;6.85;78.80;98170.97;4501805;31;34672;-87
2023/12/14 08:07:13;;;;;;;51.33;33.88;;;;;;;6.79;77.98;98172.63;4509362;31;34662;-87
2023/12/14 08:09:41;;;;;;;54.05;35.58;;;;;;;6.75;78.80;98180.31;4500229;31;33999;-88
2023/12/14 08:12:09;;;;;;;56.03;37.72;;;;;;;6.80;77.83;98182.09;4499482;31;33432;-87
2023/12/14 08:14:38;;;;;;;52.55;35.85;;;;;;;6.34;80.43;98186.66;4472465;31;33782;-86
2023/12/14 08:17:05;;;;;;;54.30;37.03;;;;;;;6.33;80.42;98197.81;4497644;31;34546;-87
2023/12/14 08:19:33;;;;;;;50.10;35.92;;;;;;;6.39;79.88;98206.44;4490984;31;34992;-87
2023/12/14 08:22:01;;;;;;;56.25;38.78;;;;;;;6.32;80.94;98216.66;4509735;31;34505;-87
2023/12/14 08:24:28;;;;;;;55.22;37.67;;;;;;;6.24;81.07;98214.81;4486218;31;33226;-86
2023/12/14 08:26:56;;;;;;;47.55;34.50;;;;;;;6.67;79.70;98221.44;4504811;31;33848;-87
2023/12/14 08:29:23;;;;;;;55.72;37.15;;;;;;;6.69;78.94;98224.87;4500275;31;33705;-87
2023/12/14 08:31:51;;;;;;;49.30;37.13;;;;;;;6.73;79.07;98223.22;4506878;31;33359;-87
2023/12/14 08:34:18;;;;;;;54.78;37.53;;;;;;;6.58;79.26;98227.31;4511618;31;33882;-87
2023/12/14 08:36:46;;;;;;;53.33;37.60;;;;;;;6.17;81.08;98234.44;4514786;31;34810;-87
2023/12/14 08:39:13;;;;;;;47.47;34.63;;;;;;;6.55;79.16;98239.28;4513755;31;34097;-87
2023/12/14 08:41:41;;;;;;;54.90;39.78;;;;;;;6.69;78.50;98237.75;4507874;31;34402;-87
2023/12/14 08:44:08;;;;;;;57.78;39.28;;;;;;;6.38;79.94;98245.91;4512405;31;33886;-88
2023/12/14 08:46:45;;;;;;;57.03;39.97;;;;;;;6.53;79.20;98240.97;4510633;31;34607;-86
2023/12/14 08:49:13;;;;;;;54.78;38.85;;;;;;;6.58;79.33;98234.16;4490080;31;34193;-87
2023/12/14 08:51:42;;;;;;;57.70;40.42;;;;;;;6.32;80.34;98238.94;4499407;31;34348;-86
2023/12/14 08:54:09;;;;;;;61.17;40.72;;;;;;;6.23;80.55;98244.84;4489553;31;33816;-85
2023/12/14 08:56:37;;;;;;;55.08;39.22;;;;;;;6.48;79.95;98248.66;4494143;31;34789;-86
2023/12/14 08:59:04;;;;;;;51.20;36.85;;;;;;;6.40;80.17;98251.94;4484579;31;33558;-85
2023/12/14 09:01:32;;;;;;;50.47;36.63;;;;;;;6.73;78.66;98256.69;4499424;31;33268;-86
2023/12/14 09:04:00;;;;;;;50.10;37.83;;;;;;;6.56;79.63;98259.91;4502934;31;33507;-86
2023/12/14 09:06:27;;;;;;;52.95;37.10;;;;;;;6.40;80.81;98275.97;4504237;31;34839;-86
2023/12/14 09:08:55;;;;;;;50.42;36.88;;;;;;;6.61;79.32;98267.69;4504600;31;33878;-86
2023/12/14 09:11:22;;;;;;;48.58;35.28;;;;;;;6.63;79.86;98271.19;4505533;31;34111;-85
2023/12/14 09:13:50;;;;;;;48.42;35.10;;;;;;;6.81;78.40;98271.41;4502638;31;33646;-86
2023/12/14 09:16:18;;;;;;;43.65;32.90;;;;;;;6.67;79.04;98278.09;4502310;31;33823;-86
2023/12/14 09:18:46;;;;;;;45.22;33.15;;;;;;;6.92;78.30;98274.12;4501670;31;33845;-86
2023/12/14 09:21:14;;;;;;;43.75;31.83;;;;;;;6.83;78.55;98267.16;4500553;31;33866;-86
2023/12/14 09:23:42;;;;;;;42.85;32.17;;;;;;;7.02;77.96;98275.12;4502328;31;33806;-85
2023/12/14 09:26:10;;;;;;;41.15;32.15;;;;;;;7.55;76.31;98272.28;4505449;31;34958;-85
2023/12/14 09:28:38;;;;;;;42.40;32.35;;;;;;;7.32;76.30;98274.62;4500579;31;33813;-84
2023/12/14 09:31:05;;;;;;;40.42;31.77;;;;;;;7.20;77.10;98280.50;4498848;31;34496;-86
2023/12/14 09:33:36;;;;;;;41.75;31.98;;;;;;;7.24;76.97;98282.25;4508591;31;34681;-85
2023/12/14 09:36:04;;;;;;;42.78;33.83;;;;;;;7.01;78.10;98286.28;4483897;31;33522;-83
2023/12/14 09:38:31;;;;;;;40.53;32.20;;;;;;;6.87;78.91;98293.81;4510722;31;34925;-85
2023/12/14 09:40:59;;;;;;;38.17;31.05;;;;;;;7.01;78.43;98294.00;4510359;31;33725;-85
2023/12/14 09:43:26;;;;;;;42.97;32.70;;;;;;;7.20;77.69;98298.53;4513232;31;33569;-84
2023/12/14 09:45:55;;;;;;;42.33;31.10;;;;;;;7.34;77.28;98301.25;4499500;31;34785;-85
2023/12/14 09:48:23;;;;;;;43.03;33.05;;;;;;;7.77;75.29;98294.88;4488065;31;33936;-85
2023/12/14 09:50:51;;;;;;;41.80;32.17;;;;;;;7.18;77.49;98296.78;4493366;31;33750;-84
2023/12/14 09:53:18;;;;;;;43.47;33.78;;;;;;;7.25;77.38;98301.16;4496627;31;33473;-84
2023/12/14 09:55:46;;;;;;;41.58;31.70;;;;;;;7.35;77.23;98300.44;4499911;31;33776;-85
2023/12/14 09:58:13;;;;;;;40.67;32.08;;;;;;;6.85;79.60;98295.50;4506321;31;34730;-85
2023/12/14 10:00:42;;;;;;;40.17;30.45;;;;;;;7.09;78.86;98302.69;4505610;31;33460;-83
2023/12/14 10:03:28;;;;;;;42.67;32.25;;;;;;;7.32;77.74;98309.00;4485959;31;33471;-84
2023/12/14 10:05:57;;;;;;;36.30;29.53;;;;;;;7.25;79.06;98317.50;4507756;31;35222;-84
2023/12/14 10:08:26;;;;;;;34.67;27.95;;;;;;;7.35;77.47;98315.91;4483997;31;33871;-86
2023/12/14 10:10:55;;;;;;;41.47;31.12;;;;;;;7.28;78.14;98320.12;4489739;31;33885;-84
2023/12/14 10:13:38;;;;;;;34.97;28.00;;;;;;;7.49;77.31;98324.66;4486513;31;33577;-85
2023/12/14 10:16:07;;;;;;;38.40;29.52;;;;;;;7.45;77.43;98324.59;4484715;31;33503;-84
2023/12/14 10:18:35;;;;;;;38.13;31.08;;;;;;;7.39;77.35;98320.25;4489719;31;34105;-83
2023/12/14 10:21:03;;;;;;;39.85;30.70;;;;;;;7.27;78.04;98326.13;4508211;31;32935;-84
2023/12/14 10:23:31;;;;;;;35.38;28.33;;;;;;;7.24;78.36;98325.22;4497881;31;34287;-86
2023/12/14 10:25:58;;;;;;;38.08;29.65;;;;;;;7.01;79.38;98340.41;4514198;31;35012;-86
2023/12/14 10:28:26;;;;;;;37.90;29.55;;;;;;;7.12;79.17;98337.94;4512954;31;34240;-86
2023/12/14 10:30:54;;;;;;;36.80;29.70;;;;;;;7.18;79.31;98340.59;4511227;31;33325;-86
2023/12/14 10:33:22;;;;;;;36.40;30.08;;;;;;;7.38;78.25;98335.69;4512798;31;33502;-88
2023/12/14 10:35:49;;;;;;;40.63;31.15;;;;;;;7.36;78.19;98342.56;4511489;31;34104;-86
2023/12/14 10:38:18;;;;;;;39.85;31.37;;;;;;;6.87;79.85;98342.78;4506591;31;34064;-86
2023/12/14 10:40:46;;;;;;;39.28;31.20;;;;;;;7.29;78.89;98346.75;4504796;31;33541;-86
2023/12/14 10:43:15;;;;;;;39.00;31.73;;;;;;;7.26;78.93;98347.59;4503116;31;33531;-85
2023/12/14 10:46:05;;;;;;;37.42;30.65;;;;;;;7.55;77.45;98344.50;4487303;31;34652;-85
2023/12/14 10:48:35;;;;;;;36.95;29.83;;;;;;;7.50;77.31;98353.88;4498901;31;34309;-86
2023/12/14 10:51:05;;;;;;;36.42;29.35;;;;;;;7.21;78.91;98356.97;4485795;31;33848;-88
2023/12/14 10:53:33;;;;;;;38.00;29.02;;;;;;;7.53;77.24;98361.66;4497337;31;33956;-85
2023/12/14 10:56:02;;;;;;;37.50;30.35;;;;;;;7.34;78.15;98358.00;4514046;31;33398;-86
2023/12/14 10:58:47;;;;;;;36.00;29.25;;;;;;;7.02;79.64;98362.75;4492156;31;34065;-86
2023/12/14 11:01:16;;;;;;;33.92;28.30;;;;;;;7.53;77.49;98366.81;4495085;31;34577;-86
2023/12/14 11:03:44;;;;;;;36.60;28.98;;;;;;;7.54;77.08;98368.56;4500057;31;33751;-86
2023/12/14 11:06:28;;;;;;;36.38;28.98;;;;;;;7.15;78.46;98369.78;4510421;31;33978;-86
2023/12/14 11:09:07;;;;;;;35.42;28.75;;;;;;;7.60;77.43;98378.94;4484099;31;34815;-86
2023/12/14 11:11:53;;;;;;;37.28;29.20;;;;;;;7.38;77.62;98377.81;4499065;31;33778;-86
2023/12/14 11:14:22;;;;;;;37.15;28.77;;;;;;;7.41;78.19;98371.84;4512155;31;33875;-86
2023/12/14 11:16:54;;;;;;;34.88;28.08;;;;;;;7.55;77.95;98380.63;4499352;31;33715;-85
2023/12/14 11:19:21;;;;;;;34.50;27.60;;;;;;;7.38;78.24;98384.69;4513901;31;34731;-86
2023/12/14 11:21:58;;;;;;;34.97;27.80;;;;;;;7.24;79.92;98387.97;4505931;31;33768;-86
2023/12/14 11:24:27;;;;;;;35.97;27.65;;;;;;;6.96;81.31;98385.81;4501172;31;34769;-86
2023/12/14 11:26:54;;;;;;;33.75;27.42;;;;;;;7.45;79.01;98378.75;4498572;31;34816;-85
2023/12/14 11:29:22;;;;;;;35.92;29.42;;;;;;;7.21;80.71;98394.78;4498326;31;34827;-86